createdAt,value
2022-12-11T00:00:25.805Z,1.50
2022-12-11T00:02:52.571Z,1.50
2022-12-11T00:05:19.332Z,1.60
2022-12-11T00:07:46.136Z,1.60
2022-12-11T00:10:13.002Z,1.50
2022-12-11T00:12:39.768Z,1.50
2022-12-11T00:15:07.037Z,1.50
2022-12-11T00:17:33.905Z,1.50
2022-12-11T00:20:00.654Z,1.60
2022-12-11T00:22:29.403Z,1.60
2022-12-11T00:24:56.180Z,1.60
2022-12-11T00:27:22.961Z,1.60
2022-12-11T00:29:49.627Z,1.60
2022-12-11T00:32:16.392Z,1.60
2022-12-11T00:34:43.157Z,1.60
2022-12-11T00:37:09.836Z,1.60
2022-12-11T00:39:37.809Z,1.60
2022-12-11T00:42:04.647Z,1.60
2022-12-11T00:44:31.492Z,1.60
2022-12-11T00:46:58.209Z,1.60
2022-12-11T00:49:24.982Z,1.60
2022-12-11T00:51:51.695Z,1.60
2022-12-11T00:54:18.437Z,1.60
2022-12-11T00:56:45.114Z,1.60
2022-12-11T00:59:11.792Z,1.60
2022-12-11T01:01:38.896Z,1.60
2022-12-11T01:04:05.795Z,1.60
2022-12-11T01:06:32.475Z,1.60
2022-12-11T01:09:17.963Z,1.60
2022-12-11T01:11:44.646Z,1.60
2022-12-11T01:14:11.916Z,1.60
2022-12-11T01:16:38.824Z,1.60
2022-12-11T01:19:05.734Z,1.60
2022-12-11T01:21:32.499Z,1.70
2022-12-11T01:23:59.177Z,1.70
2022-12-11T01:26:25.947Z,1.70
2022-12-11T01:28:52.903Z,1.70
2022-12-11T01:31:22.258Z,1.70
2022-12-11T01:33:49.047Z,1.70
2022-12-11T01:36:19.057Z,1.70
2022-12-11T01:38:47.114Z,1.70
2022-12-11T01:41:14.727Z,1.70
2022-12-11T01:44:00.167Z,1.70
2022-12-11T01:46:27.441Z,1.70
2022-12-11T01:48:54.791Z,1.80
2022-12-11T01:51:22.484Z,1.80
2022-12-11T01:53:55.167Z,1.80
2022-12-11T01:56:22.017Z,1.90
2022-12-11T01:58:53.630Z,1.90
2022-12-11T02:02:01.062Z,2.10
2022-12-11T02:04:29.403Z,2.10
2022-12-11T02:06:56.368Z,2.10
2022-12-11T02:09:27.093Z,2.10
2022-12-11T02:12:12.316Z,2.10
2022-12-11T02:14:45.383Z,2.10
2022-12-11T02:17:23.425Z,2.10
2022-12-11T02:20:12.940Z,2.10
2022-12-11T02:23:04.366Z,2.20
2022-12-11T02:25:46.909Z,2.20
2022-12-11T02:28:25.650Z,2.20
2022-12-11T02:30:57.110Z,2.20
2022-12-11T02:33:37.194Z,2.20
2022-12-11T02:36:06.940Z,2.20
2022-12-11T02:38:37.759Z,2.20
2022-12-11T02:41:07.499Z,2.20
2022-12-11T02:43:35.441Z,2.30
2022-12-11T02:46:04.584Z,2.20
2022-12-11T02:48:33.197Z,2.20
2022-12-11T02:51:03.075Z,2.30
2022-12-11T02:53:32.343Z,2.20
2022-12-11T02:56:06.415Z,2.20
2022-12-11T02:58:34.319Z,2.20
2022-12-11T03:01:01.288Z,2.20
2022-12-11T03:03:29.640Z,2.20
2022-12-11T03:05:56.753Z,2.20
2022-12-11T03:08:23.551Z,2.20
2022-12-11T03:10:50.523Z,2.20
2022-12-11T03:13:20.928Z,2.30
2022-12-11T03:16:06.644Z,2.30
2022-12-11T03:18:55.336Z,2.20
2022-12-11T03:21:48.890Z,2.20
2022-12-11T03:24:26.356Z,2.20
2022-12-11T03:27:01.419Z,2.20
2022-12-11T03:29:35.110Z,2.20
2022-12-11T03:32:13.497Z,2.20
2022-12-11T03:34:48.536Z,2.20
2022-12-11T03:37:16.458Z,2.20
2022-12-11T03:39:51.458Z,2.10
2022-12-11T03:42:21.679Z,2.20
2022-12-11T03:44:50.632Z,2.10
2022-12-11T03:47:20.694Z,2.10
2022-12-11T03:49:50.397Z,2.20
2022-12-11T03:52:18.099Z,2.10
2022-12-11T03:54:48.860Z,2.10
2022-12-11T03:57:20.846Z,2.10
2022-12-11T03:59:48.305Z,2.10
2022-12-11T04:02:14.974Z,2.10
2022-12-11T04:04:42.207Z,2.10
2022-12-11T04:07:09.484Z,2.20
2022-12-11T04:09:36.567Z,2.10
2022-12-11T04:12:03.371Z,2.10
2022-12-11T04:14:48.830Z,2.10
2022-12-11T04:17:35.732Z,2.20
2022-12-11T04:20:21.724Z,2.20
2022-12-11T04:23:07.237Z,2.20
2022-12-11T04:25:33.904Z,2.20
2022-12-11T04:28:00.618Z,2.20
2022-12-11T04:30:33.778Z,2.20
2022-12-11T04:33:01.369Z,2.20
2022-12-11T04:35:28.472Z,2.30
2022-12-11T04:37:55.239Z,2.30
2022-12-11T04:40:22.342Z,2.30
2022-12-11T04:42:49.010Z,2.30
2022-12-11T04:45:15.843Z,2.40
2022-12-11T04:47:42.814Z,2.40
2022-12-11T04:50:11.598Z,2.40
2022-12-11T04:52:38.348Z,2.40
2022-12-11T04:55:06.295Z,2.40
2022-12-11T04:57:33.135Z,2.40
2022-12-11T05:00:00.048Z,2.40
2022-12-11T05:02:27.198Z,2.40
2022-12-11T05:04:53.924Z,2.40
2022-12-11T05:07:20.605Z,2.40
2022-12-11T05:09:47.403Z,2.40
2022-12-11T05:12:14.087Z,2.40
2022-12-11T05:14:40.825Z,2.40
2022-12-11T05:17:07.498Z,2.40
2022-12-11T05:19:34.170Z,2.50
2022-12-11T05:22:00.866Z,2.40
2022-12-11T05:24:27.537Z,2.40
2022-12-11T05:26:54.217Z,2.50
2022-12-11T05:29:20.887Z,2.40
2022-12-11T05:31:47.588Z,2.40
2022-12-11T05:34:15.850Z,2.40
2022-12-11T05:36:42.543Z,2.40
2022-12-11T05:39:11.364Z,2.30
2022-12-11T05:41:38.038Z,2.30
2022-12-11T05:44:04.808Z,2.30
2022-12-11T05:46:31.680Z,2.40
2022-12-11T05:49:01.738Z,2.50
2022-12-11T05:51:29.350Z,2.30
2022-12-11T05:53:56.994Z,2.40
2022-12-11T05:56:29.580Z,2.40
2022-12-11T05:58:57.149Z,2.40
2022-12-11T06:01:41.227Z,2.40
2022-12-11T06:04:09.980Z,2.40
2022-12-11T06:06:37.230Z,2.40
2022-12-11T06:09:05.454Z,2.40
2022-12-11T06:11:34.023Z,2.40
2022-12-11T06:14:03.117Z,2.40
2022-12-11T06:16:29.881Z,2.40
2022-12-11T06:18:58.415Z,2.40
2022-12-11T06:21:29.929Z,2.40
2022-12-11T06:23:58.739Z,2.40
2022-12-11T06:26:26.619Z,2.50
2022-12-11T06:28:53.524Z,2.40
2022-12-11T06:31:20.817Z,2.50
2022-12-11T06:33:48.203Z,2.50
2022-12-11T06:36:21.521Z,2.50
2022-12-11T06:38:48.333Z,2.50
2022-12-11T06:41:15.928Z,2.50
2022-12-11T06:43:43.289Z,2.60
2022-12-11T06:46:13.123Z,2.60
2022-12-11T06:48:42.208Z,2.60
2022-12-11T06:51:11.212Z,2.60
2022-12-11T06:53:38.887Z,2.60
2022-12-11T06:56:14.044Z,2.70
2022-12-11T06:58:42.414Z,2.60
2022-12-11T07:01:23.296Z,2.50
2022-12-11T07:03:52.348Z,2.60
2022-12-11T07:06:18.993Z,2.50
2022-12-11T07:08:45.694Z,2.60
2022-12-11T07:11:14.976Z,2.50
2022-12-11T07:13:42.316Z,2.50
2022-12-11T07:16:11.328Z,2.50
2022-12-11T07:18:44.333Z,2.50
2022-12-11T07:21:13.004Z,2.50
2022-12-11T07:23:40.419Z,2.50
2022-12-11T07:26:09.523Z,2.50
2022-12-11T07:28:36.471Z,2.60
2022-12-11T07:31:15.304Z,2.50
2022-12-11T07:33:42.599Z,2.50
2022-12-11T07:36:12.140Z,2.50
2022-12-11T07:38:39.262Z,2.50
2022-12-11T07:41:10.493Z,2.50
2022-12-11T07:43:37.531Z,2.50
2022-12-11T07:46:06.717Z,2.50
2022-12-11T07:48:36.133Z,2.50
2022-12-11T07:51:09.831Z,2.50
2022-12-11T07:53:36.518Z,2.50
2022-12-11T07:56:03.925Z,2.50
2022-12-11T07:58:30.660Z,2.50
2022-12-11T08:00:58.250Z,2.50
2022-12-11T08:03:25.421Z,2.50
2022-12-11T08:05:53.238Z,2.50
2022-12-11T08:08:20.345Z,2.50
2022-12-11T08:10:47.162Z,2.50
2022-12-11T08:13:13.904Z,2.60
2022-12-11T08:15:40.762Z,2.60
2022-12-11T08:18:07.422Z,2.50
2022-12-11T08:20:34.078Z,2.50
2022-12-11T08:23:02.887Z,2.50
2022-12-11T08:25:29.613Z,2.50
2022-12-11T08:27:56.331Z,2.50
2022-12-11T08:30:22.996Z,2.50
2022-12-11T08:32:49.687Z,2.50
2022-12-11T08:35:16.501Z,2.50
2022-12-11T08:37:43.193Z,2.60
2022-12-11T08:40:10.921Z,2.60
2022-12-11T08:42:37.889Z,2.50
2022-12-11T08:45:05.210Z,2.50
2022-12-11T08:47:32.023Z,2.40
2022-12-11T08:49:58.715Z,2.40
2022-12-11T08:52:25.421Z,2.30
2022-12-11T08:54:52.098Z,2.30
2022-12-11T08:57:18.956Z,2.30
2022-12-11T08:59:45.656Z,2.40
2022-12-11T09:02:13.471Z,2.30
2022-12-11T09:04:40.435Z,2.30
2022-12-11T09:07:07.102Z,2.30
2022-12-11T09:09:33.938Z,2.30
2022-12-11T09:12:01.581Z,2.30
2022-12-11T09:14:28.351Z,2.30
2022-12-11T09:16:55.416Z,2.40
2022-12-11T09:19:22.191Z,2.20
2022-12-11T09:21:49.088Z,2.20
2022-12-11T09:24:15.842Z,2.30
2022-12-11T09:26:42.905Z,2.40
2022-12-11T09:29:11.142Z,2.20
2022-12-11T09:31:37.860Z,2.20
2022-12-11T09:34:07.300Z,2.20
2022-12-11T09:36:34.973Z,2.20
2022-12-11T09:39:04.078Z,2.20
2022-12-11T09:41:57.116Z,2.20
2022-12-11T09:44:32.696Z,2.20
2022-12-11T09:47:00.463Z,2.20
2022-12-11T09:49:38.515Z,2.30
2022-12-11T09:52:17.628Z,2.20
2022-12-11T09:54:54.291Z,2.20
2022-12-11T09:57:28.190Z,2.00
2022-12-11T10:00:11.387Z,2.10
2022-12-11T10:03:07.215Z,2.20
2022-12-11T10:05:44.695Z,2.20
2022-12-11T10:08:19.433Z,2.20
2022-12-11T10:11:16.675Z,2.20
2022-12-11T10:13:58.695Z,2.30
2022-12-11T10:16:46.991Z,2.30
2022-12-11T10:19:34.660Z,2.30
2022-12-11T10:22:02.334Z,2.40
2022-12-11T10:25:10.157Z,2.40
2022-12-11T10:27:32.514Z,2.30
2022-12-11T10:30:14.893Z,2.20
2022-12-11T10:33:17.040Z,2.20
2022-12-11T10:35:48.222Z,2.30
2022-12-11T10:38:23.947Z,2.30
2022-12-11T10:40:57.956Z,2.40
2022-12-11T10:43:36.292Z,2.40
2022-12-11T10:46:04.788Z,2.40
2022-12-11T10:48:31.547Z,2.50
2022-12-11T10:51:02.502Z,2.50
2022-12-11T10:53:30.357Z,2.50
2022-12-11T10:55:58.606Z,2.60
2022-12-11T10:58:33.880Z,2.60
2022-12-11T11:01:03.511Z,2.60
2022-12-11T11:03:30.380Z,2.70
2022-12-11T11:06:17.270Z,2.70
2022-12-11T11:08:55.951Z,2.80
2022-12-11T11:11:33.940Z,2.80
2022-12-11T11:14:09.989Z,2.80
2022-12-11T11:16:38.859Z,2.80
2022-12-11T11:19:06.507Z,2.80
2022-12-11T11:21:35.894Z,2.80
2022-12-11T11:24:03.606Z,2.80
2022-12-11T11:26:56.709Z,2.80
2022-12-11T11:29:30.530Z,2.80
2022-12-11T11:32:02.535Z,2.80
2022-12-11T11:34:30.938Z,2.80
2022-12-11T11:37:00.875Z,2.80
2022-12-11T11:39:38.410Z,2.80
2022-12-11T11:42:18.591Z,2.80
2022-12-11T11:44:59.636Z,2.80
2022-12-11T11:47:30.419Z,2.80
2022-12-11T11:50:25.501Z,2.80
2022-12-11T11:53:00.331Z,2.90
2022-12-11T11:55:57.793Z,2.90
2022-12-11T11:58:49.703Z,2.90
2022-12-11T12:01:18.931Z,2.90
2022-12-11T12:03:47.657Z,2.90
2022-12-11T12:06:44.791Z,2.90
2022-12-11T12:09:37.689Z,3.00
2022-12-11T12:12:11.064Z,3.00
2022-12-11T12:15:18.258Z,3.00
2022-12-11T12:17:56.332Z,3.00
2022-12-11T12:20:41.262Z,3.00
2022-12-11T12:23:37.106Z,3.00
2022-12-11T12:26:31.837Z,3.00
2022-12-11T12:29:26.944Z,3.00
2022-12-11T12:32:19.494Z,3.10
2022-12-11T12:35:30.713Z,3.10
2022-12-11T12:38:06.667Z,3.10
2022-12-11T12:40:36.443Z,3.10
2022-12-11T12:43:21.691Z,3.10
2022-12-11T12:45:48.496Z,3.10
2022-12-11T12:48:15.894Z,3.10
2022-12-11T12:50:46.175Z,3.10
2022-12-11T12:53:27.594Z,3.10
2022-12-11T12:55:55.248Z,3.10
2022-12-11T12:58:31.318Z,3.10
2022-12-11T13:01:16.445Z,3.10
2022-12-11T13:04:47.441Z,3.00
2022-12-11T13:07:29.546Z,3.00
2022-12-11T13:10:07.929Z,3.00
2022-12-11T13:12:44.825Z,3.00
2022-12-11T13:15:27.530Z,3.00
2022-12-11T13:17:54.637Z,3.00
2022-12-11T13:20:25.268Z,3.00
2022-12-11T13:23:07.212Z,3.00
2022-12-11T13:25:47.547Z,3.00
2022-12-11T13:28:39.328Z,3.00
2022-12-11T13:31:15.334Z,3.00
2022-12-11T13:33:48.495Z,2.90
2022-12-11T13:36:25.008Z,2.90
2022-12-11T13:39:17.326Z,2.90
2022-12-11T13:41:51.616Z,2.90
2022-12-11T13:44:30.695Z,2.90
2022-12-11T13:47:00.093Z,2.90
2022-12-11T13:49:32.422Z,2.90
2022-12-11T13:52:00.404Z,2.90
2022-12-11T13:54:29.056Z,2.90
2022-12-11T13:57:06.410Z,2.90
2022-12-11T13:59:36.814Z,2.90
2022-12-11T14:02:24.018Z,2.90
2022-12-11T14:04:58.528Z,2.90
2022-12-11T14:07:31.947Z,2.80
2022-12-11T14:10:23.568Z,2.80
2022-12-11T14:13:20.263Z,2.80
2022-12-11T14:15:47.325Z,2.90
2022-12-11T14:18:23.522Z,2.80
2022-12-11T14:21:01.526Z,2.80
2022-12-11T14:23:30.254Z,2.80
2022-12-11T14:26:20.985Z,2.80
2022-12-11T14:28:47.839Z,2.80
2022-12-11T14:31:18.098Z,2.80
2022-12-11T14:33:52.830Z,2.80
2022-12-11T14:36:20.360Z,2.70
2022-12-11T14:38:52.434Z,2.70
2022-12-11T14:41:25.110Z,2.70
2022-12-11T14:43:55.219Z,2.70
2022-12-11T14:46:43.883Z,2.70
2022-12-11T14:49:28.843Z,2.70
2022-12-11T14:51:57.524Z,2.70
2022-12-11T14:54:38.615Z,2.70
2022-12-11T14:57:07.877Z,2.70
2022-12-11T14:59:43.770Z,2.70
2022-12-11T15:02:24.911Z,2.70
2022-12-11T15:05:05.338Z,2.70
2022-12-11T15:07:32.792Z,2.60
2022-12-11T15:09:59.564Z,2.60
2022-12-11T15:12:26.385Z,2.60
2022-12-11T15:15:00.904Z,2.60
2022-12-11T15:17:28.462Z,2.60
2022-12-11T15:20:02.511Z,2.60
2022-12-11T15:22:32.163Z,2.60
2022-12-11T15:24:59.906Z,2.60
2022-12-11T15:27:36.882Z,2.60
2022-12-11T15:30:27.164Z,2.60
2022-12-11T15:33:06.003Z,2.60
2022-12-11T15:35:32.686Z,2.60
2022-12-11T15:38:00.172Z,2.60
2022-12-11T15:40:27.935Z,2.60
2022-12-11T15:42:55.633Z,2.60
2022-12-11T15:45:25.448Z,2.60
2022-12-11T15:47:52.678Z,2.60
2022-12-11T15:50:24.032Z,2.50
2022-12-11T15:52:52.147Z,2.50
2022-12-11T15:55:20.476Z,2.50
2022-12-11T15:57:52.691Z,2.50
2022-12-11T16:00:20.802Z,2.50
2022-12-11T16:02:47.766Z,2.40
2022-12-11T16:05:15.217Z,2.50
2022-12-11T16:07:42.364Z,2.40
2022-12-11T16:10:15.131Z,2.40
2022-12-11T16:12:42.845Z,2.40
2022-12-11T16:15:14.380Z,2.40
2022-12-11T16:17:43.148Z,2.40
2022-12-11T16:20:10.963Z,2.40
2022-12-11T16:22:37.943Z,2.40
2022-12-11T16:25:04.985Z,2.40
2022-12-11T16:27:31.865Z,2.40
2022-12-11T16:29:58.550Z,2.60
2022-12-11T16:32:25.243Z,2.40
2022-12-11T16:34:51.934Z,2.40
2022-12-11T16:37:18.643Z,2.40
2022-12-11T16:39:46.897Z,2.40
2022-12-11T16:42:13.699Z,2.40
2022-12-11T16:44:43.999Z,2.40
2022-12-11T16:47:10.835Z,2.40
2022-12-11T16:49:37.490Z,2.40
2022-12-11T16:52:04.288Z,2.40
2022-12-11T16:54:31.082Z,2.40
2022-12-11T16:56:57.738Z,2.40
2022-12-11T16:59:24.475Z,2.40
2022-12-11T17:01:51.338Z,2.40
2022-12-11T17:04:18.275Z,2.50
2022-12-11T17:06:46.321Z,2.50
2022-12-11T17:09:15.964Z,2.50
2022-12-11T17:11:42.616Z,2.50
2022-12-11T17:14:10.239Z,2.50
2022-12-11T17:16:36.938Z,2.40
2022-12-11T17:19:05.298Z,2.50
2022-12-11T17:21:31.966Z,2.40
2022-12-11T17:23:58.745Z,2.50
2022-12-11T17:26:25.557Z,2.40
2022-12-11T17:28:52.370Z,2.40
2022-12-11T17:31:20.081Z,2.40
2022-12-11T17:33:47.178Z,2.40
2022-12-11T17:36:16.554Z,2.40
2022-12-11T17:38:43.624Z,2.40
2022-12-11T17:41:16.912Z,2.40
2022-12-11T17:43:47.463Z,2.40
2022-12-11T17:46:14.445Z,2.40
2022-12-11T17:48:41.150Z,2.40
2022-12-11T17:51:09.530Z,2.40
2022-12-11T17:53:36.829Z,2.40
2022-12-11T17:56:06.523Z,2.40
2022-12-11T17:58:33.855Z,2.40
2022-12-11T18:01:01.100Z,2.40
2022-12-11T18:03:28.815Z,2.40
2022-12-11T18:05:56.770Z,2.40
2022-12-11T18:08:26.177Z,2.30
2022-12-11T18:10:54.311Z,2.30
2022-12-11T18:13:22.050Z,2.30
2022-12-11T18:16:00.758Z,2.30
2022-12-11T18:18:27.616Z,2.30
2022-12-11T18:20:54.271Z,2.20
2022-12-11T18:23:20.991Z,2.20
2022-12-11T18:25:47.628Z,2.30
2022-12-11T18:28:14.581Z,2.20
2022-12-11T18:30:41.318Z,2.20
2022-12-11T18:33:08.105Z,2.20
2022-12-11T18:35:34.762Z,2.20
2022-12-11T18:38:01.440Z,2.20
2022-12-11T18:40:28.882Z,2.20
2022-12-11T18:42:55.785Z,2.20
2022-12-11T18:45:22.443Z,2.20
2022-12-11T18:47:51.510Z,2.20
2022-12-11T18:50:18.660Z,2.20
2022-12-11T18:52:45.412Z,2.20
2022-12-11T18:55:12.541Z,2.20
2022-12-11T18:57:39.505Z,2.20
2022-12-11T19:00:07.532Z,2.20
2022-12-11T19:02:35.528Z,2.20
2022-12-11T19:05:02.273Z,2.20
2022-12-11T19:07:28.977Z,2.20
2022-12-11T19:09:55.712Z,2.20
2022-12-11T19:12:22.488Z,2.20
2022-12-11T19:14:49.212Z,2.20
2022-12-11T19:17:15.945Z,2.20
2022-12-11T19:19:44.879Z,2.20
2022-12-11T19:22:11.724Z,2.20
2022-12-11T19:24:38.532Z,2.10
2022-12-11T19:27:09.995Z,2.20
2022-12-11T19:29:39.877Z,2.20
2022-12-11T19:32:06.542Z,2.20
2022-12-11T19:34:33.311Z,2.10
2022-12-11T19:37:00.214Z,2.10
2022-12-11T19:39:26.941Z,2.10
2022-12-11T19:41:53.645Z,2.10
2022-12-11T19:44:20.345Z,2.20
2022-12-11T19:46:47.192Z,2.10
2022-12-11T19:49:13.999Z,2.10
2022-12-11T19:51:41.600Z,2.10
2022-12-11T19:54:11.754Z,2.10
2022-12-11T19:56:38.532Z,2.10
2022-12-11T19:59:08.328Z,2.10
2022-12-11T20:01:37.501Z,2.10
2022-12-11T20:04:07.029Z,2.10
2022-12-11T20:06:36.813Z,2.10
2022-12-11T20:09:05.901Z,2.10
2022-12-11T20:11:33.553Z,2.10
2022-12-11T20:14:00.562Z,2.10
2022-12-11T20:17:01.639Z,2.10
2022-12-11T20:19:15.020Z,2.20
2022-12-11T20:21:47.528Z,2.10
2022-12-11T20:24:14.222Z,2.10
2022-12-11T20:26:41.219Z,2.10
2022-12-11T20:29:08.416Z,2.20
2022-12-11T20:31:37.149Z,2.20
2022-12-11T20:34:04.927Z,2.10
2022-12-11T20:36:31.698Z,2.10
2022-12-11T20:38:58.663Z,2.10
2022-12-11T20:41:26.281Z,2.10
2022-12-11T20:43:54.139Z,2.10
2022-12-11T20:46:24.913Z,2.10
2022-12-11T20:48:52.150Z,2.10
2022-12-11T20:51:25.859Z,2.10
2022-12-11T20:53:59.051Z,2.20
2022-12-11T20:56:29.502Z,2.20
2022-12-11T20:58:57.440Z,2.10
2022-12-11T21:01:27.068Z,2.10
2022-12-11T21:03:54.582Z,2.10
2022-12-11T21:06:31.667Z,2.10
2022-12-11T21:09:04.837Z,2.10
2022-12-11T21:11:34.947Z,2.10
2022-12-11T21:14:01.720Z,2.10
2022-12-11T21:16:28.847Z,2.10
2022-12-11T21:18:59.880Z,2.10
2022-12-11T21:21:26.781Z,2.10
2022-12-11T21:23:53.573Z,2.10
2022-12-11T21:26:20.540Z,2.10
2022-12-11T21:28:47.404Z,2.10
2022-12-11T21:31:18.635Z,2.10
2022-12-11T21:33:45.684Z,2.10
2022-12-11T21:36:13.910Z,2.10
2022-12-11T21:38:44.067Z,2.10
2022-12-11T21:41:23.079Z,2.10
2022-12-11T21:46:38.708Z,2.10
2022-12-11T21:49:05.706Z,2.10
2022-12-11T21:51:37.916Z,2.10
2022-12-11T21:54:13.135Z,2.20
2022-12-11T21:56:40.174Z,2.20
2022-12-11T21:59:07.192Z,2.20
2022-12-11T22:01:38.455Z,2.20
2022-12-11T22:04:05.674Z,2.30
2022-12-11T22:06:32.955Z,2.30
2022-12-11T22:08:59.892Z,2.30
2022-12-11T22:11:30.172Z,2.30
2022-12-11T22:13:57.676Z,2.30
2022-12-11T22:16:25.179Z,2.30
2022-12-11T22:18:51.957Z,2.30
2022-12-11T22:21:19.483Z,2.20
2022-12-11T22:23:46.635Z,2.20
2022-12-11T22:26:24.134Z,2.20
2022-12-11T22:28:51.183Z,2.20
2022-12-11T22:31:21.247Z,2.20
2022-12-11T22:33:50.049Z,2.20
2022-12-11T22:36:20.101Z,2.10
2022-12-11T22:38:47.334Z,2.10
2022-12-11T22:41:24.451Z,2.10
2022-12-11T22:43:51.687Z,2.20
2022-12-11T22:46:20.603Z,2.10
2022-12-11T22:48:47.577Z,2.10
2022-12-11T22:51:17.415Z,2.20
2022-12-11T22:53:44.183Z,2.20
2022-12-11T22:56:12.771Z,2.20
2022-12-11T22:58:40.097Z,2.20
2022-12-11T23:01:13.342Z,2.20
2022-12-11T23:03:40.530Z,2.20
2022-12-11T23:06:13.177Z,2.20
2022-12-11T23:08:41.966Z,2.20
2022-12-11T23:11:15.302Z,2.20
2022-12-11T23:13:42.651Z,2.20
2022-12-11T23:16:10.237Z,2.20
2022-12-11T23:18:37.856Z,2.20
2022-12-11T23:21:05.355Z,2.20
2022-12-11T23:23:33.222Z,2.20
2022-12-11T23:25:59.944Z,2.20
2022-12-11T23:28:26.857Z,2.20
2022-12-11T23:30:53.709Z,2.20
2022-12-11T23:33:20.427Z,2.10
2022-12-11T23:35:47.194Z,2.10
2022-12-11T23:38:13.893Z,2.10
2022-12-11T23:40:40.668Z,2.10
2022-12-11T23:43:07.399Z,2.10
2022-12-11T23:45:34.050Z,2.10
2022-12-11T23:48:00.852Z,2.10
2022-12-11T23:50:27.630Z,2.10
2022-12-11T23:52:54.323Z,2.10
2022-12-11T23:55:21.120Z,2.10
2022-12-11T23:57:47.825Z,2.10
